createdAt,value
2023-08-11T00:00:43.916Z,27.48
2023-08-11T00:03:11.273Z,27.47
2023-08-11T00:05:41.068Z,27.48
2023-08-11T00:08:09.622Z,27.47
2023-08-11T00:10:37.521Z,27.47
2023-08-11T00:13:05.381Z,27.47
2023-08-11T00:15:33.521Z,27.47
2023-08-11T00:18:03.372Z,27.47
2023-08-11T00:20:31.105Z,27.47
2023-08-11T00:22:58.789Z,27.48
2023-08-11T00:25:26.859Z,27.49
2023-08-11T00:27:54.241Z,27.48
2023-08-11T00:30:21.596Z,27.47
2023-08-11T00:32:50.236Z,27.47
2023-08-11T00:35:17.268Z,27.46
2023-08-11T00:37:44.449Z,27.46
2023-08-11T00:40:13.367Z,27.46
2023-08-11T00:42:41.254Z,27.45
2023-08-11T00:45:08.812Z,27.44
2023-08-11T00:47:37.103Z,27.44
2023-08-11T00:50:04.796Z,27.44
2023-08-11T00:52:31.960Z,27.44
2023-08-11T00:54:59.295Z,27.44
2023-08-11T00:57:26.567Z,27.44
2023-08-11T00:59:53.950Z,27.44
2023-08-11T01:02:23.157Z,27.43
2023-08-11T01:04:50.264Z,27.43
2023-08-11T01:07:23.094Z,27.44
2023-08-11T01:10:00.244Z,27.44
2023-08-11T01:13:05.276Z,27.44
2023-08-11T01:15:38.207Z,27.45
2023-08-11T01:18:07.904Z,27.46
2023-08-11T01:20:36.864Z,27.47
2023-08-11T01:23:07.934Z,27.48
2023-08-11T01:25:35.557Z,27.48
2023-08-11T01:28:03.761Z,27.48
2023-08-11T01:30:31.538Z,27.48
2023-08-11T01:32:58.585Z,27.49
2023-08-11T01:35:38.947Z,27.50
2023-08-11T01:38:12.438Z,27.50
2023-08-11T01:40:40.236Z,27.51
2023-08-11T01:43:08.817Z,27.52
2023-08-11T01:45:35.895Z,27.53
2023-08-11T01:48:03.744Z,27.54
2023-08-11T01:50:32.736Z,27.55
2023-08-11T01:52:59.738Z,27.56
2023-08-11T01:55:27.651Z,27.56
2023-08-11T01:57:59.154Z,27.56
2023-08-11T02:00:29.972Z,27.58
2023-08-11T02:02:59.325Z,27.57
2023-08-11T02:05:27.210Z,27.58
2023-08-11T02:07:55.134Z,27.58
2023-08-11T02:10:22.256Z,27.59
2023-08-11T02:12:50.310Z,27.58
2023-08-11T02:15:17.730Z,27.59
2023-08-11T02:17:45.636Z,27.59
2023-08-11T02:20:18.782Z,27.59
2023-08-11T02:22:46.435Z,27.59
2023-08-11T02:25:16.259Z,27.59
2023-08-11T02:27:43.688Z,27.60
2023-08-11T02:30:12.419Z,27.60
2023-08-11T02:32:40.968Z,27.60
2023-08-11T02:35:08.581Z,27.60
2023-08-11T02:37:35.551Z,27.61
2023-08-11T02:40:02.703Z,27.61
2023-08-11T02:42:30.978Z,27.61
2023-08-11T02:44:58.583Z,27.61
2023-08-11T02:47:25.665Z,27.62
2023-08-11T02:49:52.751Z,27.62
2023-08-11T02:52:19.810Z,27.62
2023-08-11T02:54:46.827Z,27.62
2023-08-11T02:57:14.500Z,27.62
2023-08-11T02:59:41.636Z,27.60
2023-08-11T03:02:09.692Z,27.59
2023-08-11T03:04:37.622Z,27.57
2023-08-11T03:07:06.855Z,27.54
2023-08-11T03:09:34.905Z,27.54
2023-08-11T03:12:02.049Z,27.53
2023-08-11T03:14:29.734Z,27.54
2023-08-11T03:16:57.075Z,27.55
2023-08-11T03:19:24.209Z,27.55
2023-08-11T03:21:51.210Z,27.55
2023-08-11T03:24:18.259Z,27.57
2023-08-11T03:26:45.218Z,27.58
2023-08-11T03:29:12.705Z,27.58
2023-08-11T03:31:42.044Z,27.58
2023-08-11T03:34:09.186Z,27.58
2023-08-11T03:36:36.526Z,27.59
2023-08-11T03:39:04.061Z,27.59
2023-08-11T03:41:31.197Z,27.59
2023-08-11T03:43:58.637Z,27.59
2023-08-11T03:46:26.316Z,27.59
2023-08-11T03:48:54.092Z,27.57
2023-08-11T03:51:21.196Z,27.57
2023-08-11T03:53:48.469Z,27.57
2023-08-11T03:56:15.794Z,27.56
2023-08-11T03:58:45.279Z,27.56
2023-08-11T04:01:14.055Z,27.56
2023-08-11T04:03:42.889Z,27.57
2023-08-11T04:06:11.428Z,27.57
2023-08-11T04:08:39.512Z,27.56
2023-08-11T04:11:06.913Z,27.54
2023-08-11T04:13:34.922Z,27.53
2023-08-11T04:16:02.032Z,27.52
2023-08-11T04:18:29.140Z,27.50
2023-08-11T04:20:56.406Z,27.49
2023-08-11T04:23:23.683Z,27.48
2023-08-11T04:25:50.932Z,27.46
2023-08-11T04:28:19.619Z,27.44
2023-08-11T04:30:46.905Z,27.43
2023-08-11T04:33:14.624Z,27.42
2023-08-11T04:35:43.324Z,27.41
2023-08-11T04:38:11.491Z,27.41
2023-08-11T04:40:39.072Z,27.40
2023-08-11T04:43:06.936Z,27.41
2023-08-11T04:45:39.025Z,27.39
2023-08-11T04:48:07.220Z,27.40
2023-08-11T04:50:34.723Z,27.39
2023-08-11T04:53:01.865Z,27.39
2023-08-11T04:55:31.673Z,27.39
2023-08-11T04:58:00.879Z,27.40
2023-08-11T05:00:27.969Z,27.40
2023-08-11T05:02:55.723Z,27.39
2023-08-11T05:05:23.111Z,27.40
2023-08-11T05:07:50.312Z,27.39
2023-08-11T05:10:17.856Z,27.38
2023-08-11T05:12:46.643Z,27.38
2023-08-11T05:15:13.987Z,27.38
2023-08-11T05:17:41.075Z,27.38
2023-08-11T05:20:09.215Z,27.38
2023-08-11T05:22:37.283Z,27.38
2023-08-11T05:25:05.884Z,27.37
2023-08-11T05:27:33.218Z,27.37
2023-08-11T05:30:00.385Z,27.38
2023-08-11T05:32:27.772Z,27.39
2023-08-11T05:34:57.352Z,27.40
2023-08-11T05:37:26.331Z,27.41
2023-08-11T05:39:54.010Z,27.42
2023-08-11T05:42:22.134Z,27.43
2023-08-11T05:44:49.147Z,27.44
2023-08-11T05:47:16.481Z,27.46
2023-08-11T05:49:43.719Z,27.46
2023-08-11T05:52:11.105Z,27.47
2023-08-11T05:54:38.254Z,27.48
2023-08-11T05:57:05.529Z,27.48
2023-08-11T05:59:32.438Z,27.47
2023-08-11T06:01:59.579Z,27.47
2023-08-11T06:04:26.748Z,27.47
2023-08-11T06:06:53.901Z,27.46
2023-08-11T06:09:20.922Z,27.46
2023-08-11T06:11:48.023Z,27.46
2023-08-11T06:14:15.199Z,27.45
2023-08-11T06:16:42.386Z,27.44
2023-08-11T06:19:09.970Z,27.43
2023-08-11T06:21:38.928Z,27.43
2023-08-11T06:24:06.392Z,27.42
2023-08-11T06:26:33.395Z,27.41
2023-08-11T06:29:00.566Z,27.41
2023-08-11T06:31:27.815Z,27.40
2023-08-11T06:33:55.522Z,27.40
2023-08-11T06:36:23.838Z,27.40
2023-08-11T06:38:52.012Z,27.41
2023-08-11T06:41:19.097Z,27.40
2023-08-11T06:43:48.649Z,27.39
2023-08-11T06:46:16.480Z,27.38
2023-08-11T06:48:43.588Z,27.36
2023-08-11T06:51:10.769Z,27.36
2023-08-11T06:53:38.240Z,27.36
2023-08-11T06:56:05.240Z,27.36
2023-08-11T06:58:32.293Z,27.36
2023-08-11T07:00:59.500Z,27.37
2023-08-11T07:03:26.753Z,27.37
2023-08-11T07:05:54.854Z,27.37
2023-08-11T07:08:22.165Z,27.36
2023-08-11T07:10:49.515Z,27.34
2023-08-11T07:13:16.500Z,27.33
2023-08-11T07:15:44.072Z,27.31
2023-08-11T07:18:12.287Z,27.30
2023-08-11T07:20:43.603Z,27.30
2023-08-11T07:23:11.572Z,27.29
2023-08-11T07:25:39.290Z,27.30
2023-08-11T07:28:07.116Z,27.31
2023-08-11T07:30:34.607Z,27.30
2023-08-11T07:33:02.956Z,27.31
2023-08-11T07:35:30.883Z,27.33
2023-08-11T07:37:58.187Z,27.34
2023-08-11T07:40:25.236Z,27.35
2023-08-11T07:42:52.383Z,27.35
2023-08-11T07:45:19.430Z,27.35
2023-08-11T07:47:47.073Z,27.35
2023-08-11T07:50:14.250Z,27.35
2023-08-11T07:52:41.401Z,27.35
2023-08-11T07:55:09.150Z,27.34
2023-08-11T07:57:36.406Z,27.33
2023-08-11T08:00:06.540Z,27.32
2023-08-11T08:02:39.600Z,27.32
2023-08-11T08:05:15.926Z,27.32
2023-08-11T08:07:43.096Z,27.33
2023-08-11T08:10:10.805Z,27.34
2023-08-11T08:12:39.083Z,27.35
2023-08-11T08:15:08.087Z,27.35
2023-08-11T08:17:36.203Z,27.36
2023-08-11T08:20:06.395Z,27.37
2023-08-11T08:22:36.234Z,27.39
2023-08-11T08:25:11.577Z,27.39
2023-08-11T08:27:40.834Z,27.39
2023-08-11T08:30:13.161Z,27.39
2023-08-11T08:32:42.012Z,27.39
2023-08-11T08:35:10.589Z,27.41
2023-08-11T08:37:38.135Z,27.41
2023-08-11T08:40:05.990Z,27.41
2023-08-11T08:42:34.278Z,27.40
2023-08-11T08:45:02.388Z,27.40
2023-08-11T08:47:30.457Z,27.39
2023-08-11T08:49:59.310Z,27.39
2023-08-11T08:52:26.765Z,27.39
2023-08-11T08:54:54.225Z,27.40
2023-08-11T08:57:23.511Z,27.39
2023-08-11T08:59:50.657Z,27.40
2023-08-11T09:02:18.761Z,27.39
2023-08-11T09:04:47.828Z,27.39
2023-08-11T09:07:17.083Z,27.38
2023-08-11T09:09:46.242Z,27.38
2023-08-11T09:12:14.201Z,27.37
2023-08-11T09:14:43.695Z,27.37
2023-08-11T09:17:10.988Z,27.37
2023-08-11T09:19:38.923Z,27.37
2023-08-11T09:22:12.349Z,27.38
2023-08-11T09:24:41.926Z,27.38
2023-08-11T09:27:08.930Z,27.38
2023-08-11T09:29:37.524Z,27.38
2023-08-11T09:32:05.878Z,27.37
2023-08-11T09:34:33.582Z,27.37
2023-08-11T09:37:01.361Z,27.37
2023-08-11T09:39:30.646Z,27.37
2023-08-11T09:41:58.388Z,27.37
2023-08-11T09:44:26.715Z,27.36
2023-08-11T09:46:54.915Z,27.37
2023-08-11T09:49:27.078Z,27.37
2023-08-11T09:52:03.681Z,27.38
2023-08-11T09:54:33.521Z,27.40
2023-08-11T09:57:04.636Z,27.41
2023-08-11T09:59:32.594Z,27.41
2023-08-11T10:02:04.057Z,27.42
2023-08-11T10:04:43.059Z,27.42
2023-08-11T10:07:16.848Z,27.43
2023-08-11T10:09:52.735Z,27.43
2023-08-11T10:12:29.358Z,27.43
2023-08-11T10:15:03.843Z,27.45
2023-08-11T10:17:32.878Z,27.45
2023-08-11T10:20:06.008Z,27.46
2023-08-11T10:22:34.182Z,27.46
2023-08-11T10:25:05.785Z,27.47
2023-08-11T10:27:34.953Z,27.48
2023-08-11T10:30:05.063Z,27.50
2023-08-11T10:32:35.629Z,27.51
2023-08-11T10:35:03.027Z,27.52
2023-08-11T10:37:31.982Z,27.54
2023-08-11T10:40:06.471Z,27.56
2023-08-11T10:42:37.508Z,27.57
2023-08-11T10:45:13.048Z,27.58
2023-08-11T10:47:54.157Z,27.59
2023-08-11T10:50:24.992Z,27.59
2023-08-11T10:53:23.397Z,27.59
2023-08-11T10:56:04.678Z,27.59
2023-08-11T10:58:32.126Z,27.59
2023-08-11T11:01:02.748Z,27.59
2023-08-11T11:03:29.903Z,27.59
2023-08-11T11:05:57.583Z,27.58
2023-08-11T11:08:25.025Z,27.58
2023-08-11T11:10:52.033Z,27.58
2023-08-11T11:13:19.321Z,27.57
2023-08-11T11:15:46.776Z,27.56
2023-08-11T11:18:14.246Z,27.56
2023-08-11T11:20:41.291Z,27.55
2023-08-11T11:23:08.401Z,27.54
2023-08-11T11:25:35.814Z,27.53
2023-08-11T11:28:03.118Z,27.52
2023-08-11T11:30:30.609Z,27.51
2023-08-11T11:33:01.434Z,27.50
2023-08-11T11:35:30.025Z,27.50
2023-08-11T11:37:57.185Z,27.50
2023-08-11T11:40:24.428Z,27.50
2023-08-11T11:42:51.790Z,27.50
2023-08-11T11:45:19.167Z,27.49
2023-08-11T11:47:48.574Z,27.50
2023-08-11T11:50:15.691Z,27.50
2023-08-11T11:52:48.037Z,27.52
2023-08-11T11:55:18.098Z,27.53
2023-08-11T11:57:45.762Z,27.55
2023-08-11T12:00:20.377Z,27.56
2023-08-11T12:02:48.083Z,27.57
2023-08-11T12:05:16.139Z,27.58
2023-08-11T12:07:45.640Z,27.58
2023-08-11T12:10:12.859Z,27.58
2023-08-11T12:12:39.959Z,27.58
2023-08-11T12:15:09.311Z,27.57
2023-08-11T12:17:37.782Z,27.56
2023-08-11T12:20:11.555Z,27.56
2023-08-11T12:22:38.738Z,27.56
2023-08-11T12:25:05.911Z,27.56
2023-08-11T12:27:33.282Z,27.57
2023-08-11T12:30:00.476Z,27.57
2023-08-11T12:32:27.739Z,27.58
2023-08-11T12:34:54.755Z,27.59
2023-08-11T12:37:21.930Z,27.60
2023-08-11T12:39:48.940Z,27.62
2023-08-11T12:42:16.021Z,27.63
2023-08-11T12:44:43.015Z,27.64
2023-08-11T12:47:10.450Z,27.65
2023-08-11T12:49:38.037Z,27.65
2023-08-11T12:52:05.283Z,27.65
2023-08-11T12:54:32.467Z,27.65
2023-08-11T12:56:59.565Z,27.66
2023-08-11T12:59:26.608Z,27.66
2023-08-11T13:01:53.820Z,27.67
2023-08-11T13:04:20.930Z,27.67
2023-08-11T13:06:48.015Z,27.68
2023-08-11T13:09:17.168Z,27.69
2023-08-11T13:11:45.109Z,27.70
2023-08-11T13:14:12.156Z,27.70
2023-08-11T13:16:39.201Z,27.71
2023-08-11T13:19:06.743Z,27.72
2023-08-11T13:21:34.441Z,27.73
2023-08-11T13:24:02.224Z,27.73
2023-08-11T13:26:29.652Z,27.74
2023-08-11T13:28:58.755Z,27.75
2023-08-11T13:31:26.786Z,27.75
2023-08-11T13:33:53.880Z,27.75
2023-08-11T13:36:21.152Z,27.76
2023-08-11T13:38:48.430Z,27.76
2023-08-11T13:41:15.485Z,27.76
2023-08-11T13:43:42.590Z,27.76
2023-08-11T13:46:10.854Z,27.74
2023-08-11T13:48:37.933Z,27.72
2023-08-11T13:51:05.499Z,27.71
2023-08-11T13:53:32.662Z,27.71
2023-08-11T13:55:59.777Z,27.70
2023-08-11T13:58:26.912Z,27.69
2023-08-11T14:00:54.107Z,27.69
2023-08-11T14:03:21.177Z,27.67
2023-08-11T14:05:49.279Z,27.66
2023-08-11T14:08:16.416Z,27.65
2023-08-11T14:10:43.573Z,27.64
2023-08-11T14:13:12.045Z,27.63
2023-08-11T14:15:39.904Z,27.62
2023-08-11T14:18:07.826Z,27.63
2023-08-11T14:20:35.462Z,27.63
2023-08-11T14:23:02.614Z,27.63
2023-08-11T14:25:29.717Z,27.63
2023-08-11T14:27:56.912Z,27.63
2023-08-11T14:30:24.611Z,27.62
2023-08-11T14:32:52.623Z,27.62
2023-08-11T14:35:20.386Z,27.62
2023-08-11T14:37:47.409Z,27.62
2023-08-11T14:40:14.770Z,27.61
2023-08-11T14:42:42.071Z,27.60
2023-08-11T14:45:09.682Z,27.59
2023-08-11T14:47:36.903Z,27.59
2023-08-11T14:50:05.216Z,27.59
2023-08-11T14:52:32.394Z,27.59
2023-08-11T14:55:02.707Z,27.60
2023-08-11T14:57:30.493Z,27.61
2023-08-11T14:59:57.751Z,27.62
2023-08-11T15:02:25.131Z,27.62
2023-08-11T15:04:52.267Z,27.62
2023-08-11T15:07:19.947Z,27.62
2023-08-11T15:09:47.579Z,27.61
2023-08-11T15:12:14.728Z,27.61
2023-08-11T15:14:41.877Z,27.60
2023-08-11T15:17:08.852Z,27.60
2023-08-11T15:19:36.316Z,27.59
2023-08-11T15:22:03.872Z,27.59
2023-08-11T15:24:31.617Z,27.59
2023-08-11T15:26:59.115Z,27.59
2023-08-11T15:29:26.993Z,27.59
2023-08-11T15:31:54.934Z,27.60
2023-08-11T15:34:22.557Z,27.61
2023-08-11T15:36:49.815Z,27.61
2023-08-11T15:52:51.782Z,28.11
2023-08-11T15:55:27.445Z,28.10
2023-08-11T15:58:03.019Z,28.04
2023-08-11T16:00:30.187Z,28.01
2023-08-11T16:02:57.749Z,27.99
2023-08-11T16:05:24.950Z,27.97
2023-08-11T16:07:52.098Z,27.97
2023-08-11T16:10:19.317Z,27.95
2023-08-11T16:12:46.504Z,27.94
2023-08-11T16:15:13.623Z,27.93
2023-08-11T16:17:41.023Z,27.92
2023-08-11T16:20:09.193Z,27.91
2023-08-11T16:22:36.369Z,27.90
2023-08-11T16:25:03.539Z,27.89
2023-08-11T16:27:34.837Z,27.89
2023-08-11T16:30:02.603Z,27.89
2023-08-11T16:32:29.882Z,27.87
2023-08-11T16:34:57.419Z,27.86
2023-08-11T16:37:24.972Z,27.86
2023-08-11T16:39:52.116Z,27.84
2023-08-11T16:42:20.094Z,27.84
2023-08-11T16:44:48.281Z,27.83
2023-08-11T16:47:15.962Z,27.80
2023-08-11T16:49:43.305Z,27.79
2023-08-11T16:52:10.808Z,27.77
2023-08-11T16:54:38.852Z,27.75
2023-08-11T16:57:08.837Z,27.74
2023-08-11T16:59:36.202Z,27.74
2023-08-11T17:02:04.569Z,27.73
2023-08-11T17:04:31.807Z,27.72
2023-08-11T17:06:58.987Z,27.71
2023-08-11T17:09:26.152Z,27.70
2023-08-11T17:11:53.395Z,27.69
2023-08-11T17:14:20.439Z,27.67
2023-08-11T17:16:47.783Z,27.66
2023-08-11T17:19:15.164Z,27.65
2023-08-11T17:21:43.534Z,27.64
2023-08-11T17:24:11.501Z,27.62
2023-08-11T17:26:39.795Z,27.62
2023-08-11T17:29:07.554Z,27.61
2023-08-11T17:31:34.799Z,27.60
2023-08-11T17:34:02.174Z,27.60
2023-08-11T17:36:30.561Z,27.60
2023-08-11T17:38:58.035Z,27.60
2023-08-11T17:41:25.755Z,27.59
2023-08-11T17:43:53.330Z,27.58
2023-08-11T17:46:21.736Z,27.57
2023-08-11T17:48:48.913Z,27.57
2023-08-11T17:51:16.821Z,27.57
2023-08-11T17:53:47.435Z,27.57
2023-08-11T17:56:19.679Z,27.57
2023-08-11T17:58:46.747Z,27.57
2023-08-11T18:01:13.764Z,27.57
2023-08-11T18:03:41.360Z,27.58
2023-08-11T18:06:08.457Z,27.59
2023-08-11T18:08:35.712Z,27.59
2023-08-11T18:11:02.749Z,27.58
2023-08-11T18:13:29.935Z,27.57
2023-08-11T18:15:57.012Z,27.56
2023-08-11T18:18:24.421Z,27.56
2023-08-11T18:20:51.528Z,27.54
2023-08-11T18:23:18.732Z,27.53
2023-08-11T18:25:45.902Z,27.52
2023-08-11T18:28:13.239Z,27.52
2023-08-11T18:30:40.769Z,27.50
2023-08-11T18:33:08.083Z,27.49
2023-08-11T18:35:35.391Z,27.48
2023-08-11T18:38:02.857Z,27.47
2023-08-11T18:40:30.173Z,27.46
2023-08-11T18:42:57.202Z,27.45
2023-08-11T18:45:24.247Z,27.45
2023-08-11T18:47:53.121Z,27.43
2023-08-11T18:50:20.302Z,27.43
2023-08-11T18:52:47.329Z,27.44
2023-08-11T18:55:14.339Z,27.44
2023-08-11T18:57:41.288Z,27.45
2023-08-11T19:00:10.255Z,27.47
2023-08-11T19:02:37.695Z,27.48
2023-08-11T19:05:05.269Z,27.50
2023-08-11T19:07:32.492Z,27.52
2023-08-11T19:09:59.421Z,27.53
2023-08-11T19:12:26.371Z,27.55
2023-08-11T19:14:53.761Z,27.56
2023-08-11T19:17:21.943Z,27.58
2023-08-11T19:19:49.189Z,27.59
2023-08-11T19:22:16.334Z,27.58
2023-08-11T19:24:43.397Z,27.58
2023-08-11T19:27:10.722Z,27.57
2023-08-11T19:29:37.714Z,27.56
2023-08-11T19:32:05.465Z,27.56
2023-08-11T19:34:32.430Z,27.57
2023-08-11T19:36:59.405Z,27.56
2023-08-11T19:39:26.654Z,27.58
2023-08-11T19:41:53.962Z,27.58
2023-08-11T19:44:21.096Z,27.57
2023-08-11T19:46:48.453Z,27.56
2023-08-11T19:49:16.423Z,27.55
2023-08-11T19:51:45.716Z,27.53
2023-08-11T19:54:13.630Z,27.52
2023-08-11T19:56:42.356Z,27.52
2023-08-11T19:59:09.287Z,27.52
2023-08-11T20:01:36.364Z,27.53
2023-08-11T20:04:03.458Z,27.55
2023-08-11T20:06:31.002Z,27.55
2023-08-11T20:08:58.076Z,27.57
2023-08-11T20:11:25.129Z,27.58
2023-08-11T20:13:52.081Z,27.59
2023-08-11T20:16:19.138Z,27.60
2023-08-11T20:18:46.181Z,27.62
2023-08-11T20:21:13.987Z,27.63
2023-08-11T20:23:40.937Z,27.65
2023-08-11T20:26:08.005Z,27.66
2023-08-11T20:28:34.953Z,27.66
2023-08-11T20:31:02.898Z,27.67
2023-08-11T20:33:29.930Z,27.67
2023-08-11T20:35:59.833Z,27.69
2023-08-11T20:38:27.663Z,27.69
2023-08-11T20:40:58.352Z,27.70
2023-08-11T20:43:25.403Z,27.70
2023-08-11T20:45:52.565Z,27.71
2023-08-11T20:48:21.257Z,27.71
2023-08-11T20:50:52.518Z,27.71
2023-08-11T20:53:22.628Z,27.72
2023-08-11T20:55:49.815Z,27.72
2023-08-11T20:58:16.835Z,27.72
2023-08-11T21:00:43.846Z,27.73
2023-08-11T21:03:10.883Z,27.73
2023-08-11T21:05:42.501Z,27.74
2023-08-11T21:08:14.472Z,27.73
2023-08-11T21:10:45.301Z,27.73
2023-08-11T21:13:13.075Z,27.72
2023-08-11T21:15:40.848Z,27.71
2023-08-11T21:18:09.103Z,27.71
2023-08-11T21:20:37.231Z,27.72
2023-08-11T21:23:05.734Z,27.72
2023-08-11T21:25:33.415Z,27.72
2023-08-11T21:28:00.494Z,27.72
2023-08-11T21:30:27.508Z,27.72
2023-08-11T21:32:54.617Z,27.70
2023-08-11T21:35:22.279Z,27.71
2023-08-11T21:37:50.070Z,27.72
2023-08-11T21:40:17.750Z,27.72
2023-08-11T21:42:45.562Z,27.73
2023-08-11T21:45:12.668Z,27.72
2023-08-11T21:47:39.808Z,27.73
2023-08-11T21:50:08.375Z,27.73
2023-08-11T21:52:35.697Z,27.74
2023-08-11T21:55:04.585Z,27.73
2023-08-11T21:57:32.918Z,27.72
2023-08-11T22:00:00.666Z,27.71
2023-08-11T22:02:27.893Z,27.71
2023-08-11T22:04:54.986Z,27.70
2023-08-11T22:07:24.243Z,27.70
2023-08-11T22:09:51.319Z,27.68
2023-08-11T22:12:18.463Z,27.69
2023-08-11T22:14:46.331Z,27.69
2023-08-11T22:17:14.963Z,27.69
2023-08-11T22:19:47.060Z,27.70
2023-08-11T22:22:17.880Z,27.70
2023-08-11T22:24:44.993Z,27.69
2023-08-11T22:27:12.946Z,27.68
2023-08-11T22:29:40.399Z,27.67
2023-08-11T22:32:07.453Z,27.68
2023-08-11T22:34:34.592Z,27.67
2023-08-11T22:37:01.926Z,27.66
2023-08-11T22:39:28.956Z,27.66
2023-08-11T22:41:55.972Z,27.66
2023-08-11T22:44:22.981Z,27.67
2023-08-11T22:46:51.218Z,27.68
2023-08-11T22:49:18.247Z,27.68
2023-08-11T22:51:45.326Z,27.69
2023-08-11T22:54:14.546Z,27.69
2023-08-11T22:56:43.174Z,27.70
2023-08-11T22:59:10.213Z,27.70
2023-08-11T23:01:37.530Z,27.69
2023-08-11T23:04:05.118Z,27.69
2023-08-11T23:06:32.113Z,27.70
2023-08-11T23:08:59.309Z,27.70
2023-08-11T23:11:26.227Z,27.70
2023-08-11T23:13:53.250Z,27.71
2023-08-11T23:16:20.237Z,27.71
2023-08-11T23:18:47.276Z,27.71
2023-08-11T23:21:14.579Z,27.71
2023-08-11T23:23:41.611Z,27.71
2023-08-11T23:26:09.637Z,27.71
2023-08-11T23:28:36.891Z,27.72
2023-08-11T23:31:04.007Z,27.71
2023-08-11T23:33:31.208Z,27.70
2023-08-11T23:35:58.200Z,27.70
2023-08-11T23:38:25.200Z,27.70
2023-08-11T23:40:52.229Z,27.70
2023-08-11T23:43:19.245Z,27.70
2023-08-11T23:45:46.325Z,27.70
2023-08-11T23:48:13.495Z,27.69
2023-08-11T23:50:40.702Z,27.69
2023-08-11T23:53:07.756Z,27.69
2023-08-11T23:55:34.759Z,27.66
2023-08-11T23:58:01.755Z,27.65
